Time;durP1;ratioP1;P1;durP2;ratioP2;P2;SDS_P1;SDS_P2;PMS_P1;PMS_P2;Temp;Humidity;BMP_temperature;BMP_pressure;BME280_temperature;BME280_humidity;BME280_pressure;Samples;Min_cycle;Max_cycle;Signal;HPM_P1;HPM_P2
2023/02/25 00:01:34;;;;;;;4.78;2.50;;;4.10;1.00;;;;;;5022346;28;20691;-84
2023/02/25 00:04:01;;;;;;;12.50;3.63;;;4.00;1.00;;;;;;5023496;28;20212;-83
2023/02/25 00:06:28;;;;;;;5.53;3.33;;;4.00;1.00;;;;;;5027229;28;20206;-83
2023/02/25 00:08:55;;;;;;;10.50;3.90;;;4.00;1.00;;;;;;5018518;28;20228;-83
2023/02/25 00:11:24;;;;;;;8.05;2.78;;;4.00;1.00;;;;;;5020146;28;20249;-83
2023/02/25 00:13:52;;;;;;;12.57;3.42;;;3.90;1.00;;;;;;5022768;28;20236;-83
2023/02/25 00:16:20;;;;;;;9.00;3.90;;;6.00;1.00;;;;;;5022897;28;20207;-83
2023/02/25 00:18:48;;;;;;;10.60;3.33;;;3.80;1.00;;;;;;5021395;28;20242;-82
2023/02/25 00:21:16;;;;;;;11.00;3.45;;;4.00;1.00;;;;;;5022043;28;20201;-82
2023/02/25 00:23:45;;;;;;;12.82;3.47;;;4.00;1.00;;;;;;5020671;28;20260;-83
2023/02/25 00:26:12;;;;;;;12.23;3.83;;;3.90;1.00;;;;;;5019627;28;20212;-83
2023/02/25 00:28:40;;;;;;;8.63;3.63;;;3.90;1.00;;;;;;5019803;28;20661;-83
2023/02/25 00:31:10;;;;;;;6.75;4.05;;;3.90;1.00;;;;;;5021492;28;20256;-82
2023/02/25 00:33:40;;;;;;;12.18;3.40;;;4.00;1.00;;;;;;5022142;28;20248;-83
2023/02/25 00:36:08;;;;;;;7.82;2.70;;;4.00;1.00;;;;;;5022391;28;20543;-83
2023/02/25 00:38:36;;;;;;;9.52;3.38;;;3.90;1.00;;;;;;5021466;28;20220;-82
2023/02/25 00:41:10;;;;;;;9.85;2.78;;;3.90;1.00;;;;;;5021286;28;20555;-82
2023/02/25 00:43:37;;;;;;;12.40;2.35;;;3.40;1.00;;;;;;5020590;28;20188;-82
2023/02/25 00:46:04;;;;;;;1.95;1.75;;;3.40;1.00;;;;;;5019787;28;20205;-82
2023/02/25 00:48:33;;;;;;;4.03;2.00;;;3.10;1.00;;;;;;5019080;28;20236;-83
2023/02/25 00:51:05;;;;;;;3.22;2.10;;;2.90;1.00;;;;;;5019653;28;20213;-83
2023/02/25 00:53:32;;;;;;;1.83;1.73;;;2.70;1.00;;;;;;5021383;28;20197;-83
2023/02/25 00:56:00;;;;;;;3.05;1.52;;;2.60;1.00;;;;;;5019011;28;20211;-83
2023/02/25 00:58:27;;;;;;;3.28;2.08;;;2.60;1.00;;;;;;5018221;28;20341;-83
2023/02/25 01:00:53;;;;;;;4.28;2.33;;;2.70;1.00;;;;;;5018677;28;20215;-83
2023/02/25 01:03:21;;;;;;;3.90;1.75;;;2.70;1.00;;;;;;5018938;28;20707;-83
2023/02/25 01:05:49;;;;;;;3.78;2.20;;;2.80;1.00;;;;;;5021493;28;20197;-82
2023/02/25 01:08:16;;;;;;;2.55;1.67;;;2.70;1.00;;;;;;5027792;28;20355;-83
2023/02/25 01:10:43;;;;;;;4.78;1.90;;;2.70;1.00;;;;;;5028652;28;20272;-82
2023/02/25 01:13:10;;;;;;;4.80;2.38;;;2.70;1.00;;;;;;5028937;28;20225;-83
2023/02/25 01:15:37;;;;;;;4.45;2.08;;;2.80;1.00;;;;;;5028976;28;20205;-82
2023/02/25 01:18:04;;;;;;;2.10;1.90;;;2.80;1.00;;;;;;5029935;28;20263;-83
2023/02/25 01:20:31;;;;;;;2.95;2.25;;;2.90;1.00;;;;;;5025939;28;20269;-83
2023/02/25 01:22:59;;;;;;;2.28;2.03;;;2.90;1.00;;;;;;5034199;28;20292;-83
2023/02/25 01:25:26;;;;;;;6.88;2.85;;;2.90;1.00;;;;;;5037622;28;20259;-84
2023/02/25 01:27:55;;;;;;;3.67;2.35;;;3.30;1.00;;;;;;5027262;28;20778;-82
2023/02/25 01:30:22;;;;;;;3.95;3.05;;;3.00;1.00;;;;;;5031531;28;20214;-82
2023/02/25 01:32:48;;;;;;;4.15;2.67;;;3.00;1.00;;;;;;5029132;28;20284;-83
2023/02/25 01:35:15;;;;;;;7.22;3.15;;;3.10;1.00;;;;;;5028061;28;20211;-82
2023/02/25 01:37:45;;;;;;;4.00;2.42;;;3.10;1.00;;;;;;5027062;28;20253;-83
2023/02/25 01:40:16;;;;;;;2.72;2.28;;;3.20;1.00;;;;;;5029766;28;20268;-82
2023/02/25 01:42:43;;;;;;;5.55;3.00;;;3.20;1.00;;;;;;5032969;28;20185;-81
2023/02/25 01:45:27;;;;;;;6.90;3.45;;;3.20;1.00;;;;;;5033200;28;20268;-82
2023/02/25 01:48:08;;;;;;;5.53;3.10;;;3.30;1.00;;;;;;5027060;28;20233;-82
2023/02/25 01:50:42;;;;;;;6.57;3.92;;;3.40;1.00;;;;;;5025667;28;20716;-82
2023/02/25 01:53:09;;;;;;;3.67;3.33;;;3.40;1.00;;;;;;5024660;28;20213;-82
2023/02/25 01:55:39;;;;;;;5.40;3.40;;;3.40;1.00;;;;;;5023151;28;20296;-82
2023/02/25 01:58:08;;;;;;;11.50;4.28;;;3.40;1.00;;;;;;5022639;28;20311;-82
2023/02/25 02:00:37;;;;;;;6.38;3.20;;;3.50;1.00;;;;;;5022347;28;20206;-83
2023/02/25 02:03:05;;;;;;;7.22;2.83;;;3.50;1.00;;;;;;5023429;28;20215;-83
2023/02/25 02:05:42;;;;;;;4.07;3.00;;;3.50;1.00;;;;;;5022659;28;20209;-82
2023/02/25 02:08:10;;;;;;;4.22;2.83;;;3.60;1.00;;;;;;5036506;22;20259;-82
2023/02/25 02:10:38;;;;;;;8.77;3.95;;;3.60;1.00;;;;;;5024769;28;20216;-83
2023/02/25 02:13:05;;;;;;;4.45;2.60;;;3.60;1.00;;;;;;5023543;28;20226;-84
2023/02/25 02:15:38;;;;;;;5.13;3.33;;;3.60;1.00;;;;;;5022630;28;20212;-84
2023/02/25 02:18:07;;;;;;;9.75;2.90;;;3.50;1.00;;;;;;5022460;28;20719;-84
2023/02/25 02:20:43;;;;;;;6.90;2.90;;;3.40;1.00;;;;;;5029853;28;20236;-83
2023/02/25 02:23:50;;;;;;;3.35;2.90;;;3.60;1.00;;;;;;5026964;28;20219;-84
2023/02/25 02:26:50;;;;;;;2.90;2.70;;;3.60;1.00;;;;;;5022875;28;20199;-84
2023/02/25 02:29:44;;;;;;;3.35;2.30;;;3.60;1.00;;;;;;5021687;28;20221;-84
2023/02/25 02:32:17;;;;;;;2.30;2.10;;;3.80;1.00;;;;;;5027655;28;20198;-84
2023/02/25 02:34:55;;;;;;;5.40;3.03;;;3.60;1.00;;;;;;5028644;28;20595;-84
2023/02/25 02:37:30;;;;;;;7.82;2.42;;;3.60;1.00;;;;;;5033133;28;20193;-83
2023/02/25 02:40:13;;;;;;;5.93;2.60;;;4.30;1.00;;;;;;5034742;28;20240;-83
2023/02/25 02:42:49;;;;;;;2.63;2.42;;;3.70;1.00;;;;;;5031623;28;20225;-83
2023/02/25 02:45:22;;;;;;;3.30;2.92;;;3.80;1.00;;;;;;5024720;28;20276;-84
2023/02/25 02:47:57;;;;;;;4.88;2.50;;;3.70;99.90;;;;;;5021433;28;20225;-83
2023/02/25 02:50:29;;;;;;;2.65;2.45;;;3.60;1.00;;;;;;5021735;28;20288;-84
2023/02/25 02:53:00;;;;;;;2.47;2.35;;;3.90;1.00;;;;;;5021256;28;20201;-82
2023/02/25 02:55:32;;;;;;;2.33;2.20;;;3.90;99.90;;;;;;5021254;28;20203;-84
2023/02/25 02:58:10;;;;;;;2.13;2.00;;;3.70;99.90;;;;;;5022278;28;20244;-85
2023/02/25 03:00:40;;;;;;;2.55;2.25;;;3.40;99.90;;;;;;5022332;28;20243;-85
2023/02/25 03:03:14;;;;;;;3.40;2.55;;;3.60;99.90;;;;;;5022111;28;20237;-83
2023/02/25 03:05:45;;;;;;;2.30;2.20;;;3.70;99.90;;;;;;5023844;28;20280;-83
2023/02/25 03:08:18;;;;;;;2.85;2.65;;;3.60;99.90;;;;;;5032817;28;20232;-83
2023/02/25 03:10:45;;;;;;;2.28;2.17;;;3.30;1.00;;;;;;5027966;28;20220;-84
2023/02/25 03:13:12;;;;;;;3.72;2.30;;;3.80;1.00;;;;;;5029184;28;20209;-83
2023/02/25 03:15:40;;;;;;;3.38;2.63;;;4.10;99.90;;;;;;5025766;28;20304;-83
2023/02/25 03:18:18;;;;;;;3.03;2.80;;;4.00;1.00;;;;;;5023298;28;20225;-83
2023/02/25 03:20:48;;;;;;;2.67;2.50;;;3.80;1.00;;;;;;5035615;28;20185;-83
2023/02/25 03:23:20;;;;;;;5.82;2.60;;;3.40;99.90;;;;;;5035429;28;20216;-83
2023/02/25 03:25:51;;;;;;;2.80;2.40;;;3.40;1.00;;;;;;5030802;28;20193;-84
2023/02/25 03:28:26;;;;;;;2.33;2.15;;;3.40;1.00;;;;;;5024505;28;20228;-85
2023/02/25 03:31:00;;;;;;;2.85;2.60;;;5.20;1.00;;;;;;5028244;28;20256;-84
2023/02/25 03:33:34;;;;;;;2.10;1.90;;;3.40;1.00;;;;;;5029303;28;20184;-84
2023/02/25 03:36:07;;;;;;;2.90;2.13;;;3.40;1.00;;;;;;5030185;28;20192;-83
2023/02/25 03:38:36;;;;;;;2.72;2.40;;;3.30;1.00;;;;;;5032541;28;20249;-82
2023/02/25 03:41:06;;;;;;;2.40;2.20;;;3.30;1.00;;;;;;5030308;28;20288;-84
2023/02/25 03:43:37;;;;;;;2.70;2.50;;;3.40;1.00;;;;;;5021259;28;20302;-84
2023/02/25 03:46:05;;;;;;;2.40;2.20;;;2.20;1.00;;;;;;5022139;28;20199;-84
2023/02/25 03:48:37;;;;;;;2.15;1.90;;;3.60;1.00;;;;;;5022559;28;20234;-84
2023/02/25 03:51:06;;;;;;;1.60;1.50;;;3.00;1.00;;;;;;5021457;28;20196;-84
2023/02/25 03:53:34;;;;;;;2.70;2.50;;;3.20;1.00;;;;;;5021409;28;20232;-83
2023/02/25 03:56:04;;;;;;;1.80;1.70;;;3.20;1.00;;;;;;5022098;28;20212;-84
2023/02/25 03:58:32;;;;;;;2.13;2.00;;;3.50;1.00;;;;;;5031610;28;20291;-83
2023/02/25 04:01:02;;;;;;;1.95;1.83;;;3.30;1.00;;;;;;5025958;28;20209;-84
2023/02/25 04:03:29;;;;;;;3.95;2.20;;;3.30;1.00;;;;;;5022129;28;20219;-84
2023/02/25 04:05:57;;;;;;;2.13;1.92;;;3.30;1.00;;;;;;5020602;28;20621;-84
2023/02/25 04:08:24;;;;;;;2.03;1.85;;;4.20;1.00;;;;;;5021681;28;20260;-83
2023/02/25 04:10:51;;;;;;;2.13;1.90;;;3.20;1.00;;;;;;5023931;28;20208;-83
2023/02/25 04:13:19;;;;;;;2.30;1.95;;;3.20;1.00;;;;;;5020306;28;20201;-84
2023/02/25 04:15:47;;;;;;;2.00;1.90;;;3.00;1.00;;;;;;5019932;28;20209;-84
2023/02/25 04:18:14;;;;;;;2.65;1.95;;;3.30;1.00;;;;;;5023271;28;20271;-84
2023/02/25 04:20:41;;;;;;;1.88;1.77;;;3.30;1.00;;;;;;5023453;28;20315;-83
2023/02/25 04:23:13;;;;;;;1.70;1.60;;;4.20;1.00;;;;;;5022791;28;20287;-83
2023/02/25 04:25:39;;;;;;;1.55;1.45;;;3.30;1.00;;;;;;5021354;28;20211;-83
2023/02/25 04:28:06;;;;;;;1.75;1.65;;;3.30;1.00;;;;;;5020256;28;20235;-83
2023/02/25 04:30:33;;;;;;;2.75;2.20;;;3.10;99.90;;;;;;5023347;28;20205;-83
2023/02/25 04:33:00;;;;;;;1.50;1.40;;;3.20;99.90;;;;;;5020901;28;20208;-83
2023/02/25 04:35:27;;;;;;;2.30;1.50;;;3.00;1.00;;;;;;5020403;28;20225;-84
2023/02/25 04:37:54;;;;;;;1.90;1.80;;;3.30;1.00;;;;;;5021201;28;20252;-83
2023/02/25 04:40:24;;;;;;;2.53;2.28;;;3.10;99.90;;;;;;5024805;28;20208;-84
2023/02/25 04:42:50;;;;;;;1.90;1.80;;;3.00;1.00;;;;;;5022095;28;20316;-84
2023/02/25 04:45:19;;;;;;;2.40;2.20;;;3.00;1.00;;;;;;5023096;28;20292;-84
2023/02/25 04:47:46;;;;;;;1.45;1.35;;;3.00;1.00;;;;;;5023618;28;20237;-84
2023/02/25 04:50:13;;;;;;;1.70;1.60;;;3.20;1.00;;;;;;5023454;28;20212;-83
2023/02/25 04:52:39;;;;;;;1.80;1.58;;;3.00;1.00;;;;;;5026598;28;20275;-82
2023/02/25 04:55:08;;;;;;;1.77;1.67;;;3.00;1.00;;;;;;5025290;28;20236;-83
2023/02/25 04:57:41;;;;;;;1.38;1.27;;;3.20;1.00;;;;;;5024778;28;20328;-84
2023/02/25 05:00:15;;;;;;;1.50;1.40;;;3.00;1.00;;;;;;5023854;28;20216;-84
2023/02/25 05:02:42;;;;;;;1.40;1.30;;;3.00;1.00;;;;;;5024374;28;20209;-84
2023/02/25 05:05:09;;;;;;;1.95;1.85;;;2.90;1.00;;;;;;5023968;28;20212;-84
2023/02/25 05:07:37;;;;;;;1.67;1.45;;;2.90;1.00;;;;;;5024626;28;20229;-84
2023/02/25 05:10:05;;;;;;;1.67;1.58;;;2.90;1.00;;;;;;5026042;28;20194;-83
2023/02/25 05:12:31;;;;;;;1.60;1.50;;;2.80;1.00;;;;;;5027535;28;20229;-83
2023/02/25 05:15:00;;;;;;;2.03;1.30;;;2.80;1.00;;;;;;5033120;28;20268;-83
2023/02/25 05:17:26;;;;;;;1.70;1.60;;;2.80;1.00;;;;;;5028943;28;20291;-84
2023/02/25 05:19:53;;;;;;;2.67;1.80;;;4.60;1.00;;;;;;5023281;28;20272;-84
2023/02/25 05:22:21;;;;;;;3.53;1.63;;;2.70;1.00;;;;;;5023870;28;20210;-84
2023/02/25 05:24:48;;;;;;;1.88;1.77;;;3.10;1.00;;;;;;5023010;28;20241;-84
2023/02/25 05:27:15;;;;;;;1.90;1.45;;;2.70;1.00;;;;;;5023238;28;20296;-84
2023/02/25 05:29:42;;;;;;;1.85;1.33;;;2.80;1.00;;;;;;5025741;28;20706;-84
2023/02/25 05:32:10;;;;;;;1.90;1.35;;;3.00;1.00;;;;;;5025757;28;20297;-83
2023/02/25 05:34:37;;;;;;;1.80;1.40;;;2.80;1.00;;;;;;5037157;28;20244;-83
2023/02/25 05:37:04;;;;;;;2.10;2.00;;;4.10;1.00;;;;;;5033045;28;20380;-85
2023/02/25 05:39:31;;;;;;;1.50;1.40;;;3.10;1.00;;;;;;5027735;28;20235;-84
2023/02/25 05:41:58;;;;;;;1.52;1.42;;;2.80;1.00;;;;;;5022819;28;20215;-84
2023/02/25 05:44:24;;;;;;;1.70;1.60;;;2.70;99.90;;;;;;5021846;28;20228;-84
2023/02/25 05:46:51;;;;;;;1.63;1.52;;;2.70;1.00;;;;;;5022141;28;20213;-84
2023/02/25 05:49:19;;;;;;;1.70;1.60;;;2.70;99.90;;;;;;5022081;28;20230;-84
2023/02/25 05:51:48;;;;;;;1.40;1.30;;;2.70;1.00;;;;;;5022935;28;20208;-84
2023/02/25 05:54:15;;;;;;;1.50;1.40;;;2.70;1.00;;;;;;5021429;28;20226;-83
2023/02/25 05:56:43;;;;;;;1.40;1.30;;;2.70;1.00;;;;;;5021453;28;20280;-84
2023/02/25 05:59:10;;;;;;;1.85;1.75;;;2.60;1.00;;;;;;5021688;28;20287;-84
2023/02/25 06:01:37;;;;;;;1.77;1.58;;;2.70;1.00;;;;;;5022410;28;20279;-84
2023/02/25 06:04:04;;;;;;;2.28;2.10;;;2.70;1.00;;;;;;5022997;28;20320;-83
2023/02/25 06:06:32;;;;;;;3.00;1.75;;;2.60;1.00;;;;;;5023301;28;20239;-84
2023/02/25 06:08:59;;;;;;;2.00;1.90;;;2.60;1.00;;;;;;5023573;28;20291;-84
2023/02/25 06:11:33;;;;;;;2.17;1.88;;;2.60;1.00;;;;;;5029869;28;20303;-84
2023/02/25 06:14:00;;;;;;;1.92;1.83;;;2.20;1.00;;;;;;5028224;28;20281;-84
2023/02/25 06:16:30;;;;;;;2.20;2.10;;;2.30;1.00;;;;;;5029089;28;20232;-83
2023/02/25 06:18:58;;;;;;;2.13;1.90;;;2.40;1.00;;;;;;5029647;28;20224;-83
2023/02/25 06:21:26;;;;;;;3.83;1.77;;;2.40;1.00;;;;;;5029587;28;20208;-83
2023/02/25 06:23:54;;;;;;;1.80;1.70;;;2.50;1.00;;;;;;5028559;28;20255;-84
2023/02/25 06:26:21;;;;;;;2.22;2.13;;;2.50;1.00;;;;;;5030719;28;20237;-83
2023/02/25 06:28:51;;;;;;;1.80;1.70;;;2.50;1.00;;;;;;5030660;28;20228;-83
2023/02/25 06:31:21;;;;;;;1.80;1.70;;;3.10;1.00;;;;;;5024669;28;20236;-84
2023/02/25 06:33:49;;;;;;;1.80;1.70;;;2.20;1.00;;;;;;5023597;28;20216;-84
2023/02/25 06:36:17;;;;;;;5.68;2.25;;;2.30;1.00;;;;;;5023418;28;20215;-84
2023/02/25 06:38:44;;;;;;;2.42;2.00;;;2.40;1.00;;;;;;5022844;28;20670;-84
2023/02/25 06:41:16;;;;;;;2.20;2.10;;;2.40;1.00;;;;;;5022736;28;20248;-84
2023/02/25 06:43:43;;;;;;;2.10;1.98;;;2.30;1.00;;;;;;5026992;28;20317;-85
2023/02/25 06:46:11;;;;;;;3.47;2.20;;;4.90;1.00;;;;;;5024197;28;20207;-85
2023/02/25 06:48:39;;;;;;;1.70;1.60;;;2.20;1.00;;;;;;5023802;28;20227;-84
2023/02/25 06:51:08;;;;;;;2.65;1.98;;;2.40;1.00;;;;;;5027464;28;20208;-84
2023/02/25 06:53:35;;;;;;;1.98;1.85;;;2.20;1.00;;;;;;5024663;28;20296;-84
2023/02/25 06:56:02;;;;;;;2.30;2.10;;;2.60;1.00;;;;;;5027780;28;20754;-84
2023/02/25 06:58:30;;;;;;;4.10;2.13;;;2.00;1.00;;;;;;5025357;28;20228;-84
2023/02/25 07:00:57;;;;;;;4.72;2.30;;;2.10;1.00;;;;;;5022427;28;20212;-84
2023/02/25 07:03:23;;;;;;;2.35;2.15;;;2.20;1.00;;;;;;5021593;28;20320;-84
2023/02/25 07:05:50;;;;;;;1.75;1.52;;;2.20;1.00;;;;;;5024213;28;20209;-84
2023/02/25 07:08:17;;;;;;;2.17;1.75;;;2.10;1.00;;;;;;5022570;28;20266;-84
2023/02/25 07:10:44;;;;;;;3.10;1.83;;;2.10;1.00;;;;;;5031277;28;20209;-83
2023/02/25 07:13:11;;;;;;;2.08;1.77;;;2.30;1.00;;;;;;5034861;28;20200;-83
2023/02/25 07:15:40;;;;;;;2.58;1.80;;;2.10;1.00;;;;;;5034707;28;20215;-83
2023/02/25 07:18:07;;;;;;;1.65;1.55;;;2.10;1.00;;;;;;5033623;28;20264;-84
2023/02/25 07:20:34;;;;;;;2.50;2.30;;;2.20;1.00;;;;;;5026036;28;20237;-83
2023/02/25 07:23:03;;;;;;;3.25;2.15;;;2.10;1.00;;;;;;5023387;28;20259;-84
2023/02/25 07:25:30;;;;;;;3.08;1.80;;;2.20;1.00;;;;;;5022837;28;20208;-84
2023/02/25 07:27:56;;;;;;;2.35;1.90;;;3.20;1.00;;;;;;5031661;28;20296;-83
2023/02/25 07:30:23;;;;;;;2.40;2.05;;;2.20;1.00;;;;;;5031284;28;20283;-84
2023/02/25 07:32:51;;;;;;;2.13;1.73;;;2.30;1.00;;;;;;5025174;28;20228;-85
2023/02/25 07:35:18;;;;;;;2.40;2.20;;;2.20;1.00;;;;;;5022117;28;20207;-83
2023/02/25 07:37:45;;;;;;;2.45;1.70;;;2.30;1.00;;;;;;5022303;28;20636;-84
2023/02/25 07:40:12;;;;;;;3.20;1.90;;;2.30;1.00;;;;;;5023838;28;20208;-85
2023/02/25 07:42:40;;;;;;;1.92;1.70;;;2.30;1.00;;;;;;5022908;28;20263;-84
2023/02/25 07:45:09;;;;;;;1.90;1.70;;;2.30;1.00;;;;;;5024671;28;20247;-84
2023/02/25 07:47:36;;;;;;;2.20;2.10;;;2.10;1.00;;;;;;5022147;28;20239;-84
2023/02/25 07:50:05;;;;;;;2.47;1.90;;;2.30;1.00;;;;;;5025158;28;20215;-83
2023/02/25 07:52:32;;;;;;;2.78;1.45;;;2.20;1.00;;;;;;5024192;28;20215;-84
2023/02/25 07:54:59;;;;;;;3.45;2.28;;;2.20;1.00;;;;;;5020650;28;20239;-85
2023/02/25 07:57:27;;;;;;;1.70;1.60;;;2.30;1.00;;;;;;5020022;28;20234;-84
2023/02/25 07:59:54;;;;;;;1.60;1.50;;;2.20;1.00;;;;;;5023322;28;20838;-83
2023/02/25 08:02:21;;;;;;;2.55;1.70;;;2.20;1.00;;;;;;5027328;28;20228;-83
2023/02/25 08:04:48;;;;;;;2.70;1.50;;;;;;;;;;5026201;28;20246;-85
2023/02/25 08:07:17;;;;;;;2.40;1.80;;;2.30;1.00;;;;;;5021822;28;20205;-84
2023/02/25 08:09:44;;;;;;;1.30;1.20;;;2.10;1.00;;;;;;5060368;22;20280;-84
2023/02/25 08:12:11;;;;;;;1.90;1.55;;;2.10;1.00;;;;;;5038815;28;20212;-82
2023/02/25 08:14:38;;;;;;;1.70;1.60;;;2.50;1.00;;;;;;5026815;28;20203;-83
2023/02/25 08:17:05;;;;;;;2.15;1.90;;;2.60;1.00;;;;;;5016867;28;20295;-83
2023/02/25 08:19:32;;;;;;;2.85;1.67;;;2.40;1.00;;;;;;5017164;28;20291;-83
2023/02/25 08:21:59;;;;;;;1.70;1.60;;;2.20;1.00;;;;;;5021202;28;20222;-82
2023/02/25 08:24:27;;;;;;;1.92;1.83;;;2.50;1.00;;;;;;5029065;28;20225;-82
2023/02/25 08:26:54;;;;;;;1.70;1.60;;;2.20;1.00;;;;;;5031449;28;20239;-82
2023/02/25 08:29:22;;;;;;;1.30;1.20;;;2.30;1.00;;;;;;5032302;28;20243;-83
2023/02/25 08:31:50;;;;;;;1.50;1.40;;;2.30;1.00;;;;;;5029608;28;20209;-82
2023/02/25 08:34:17;;;;;;;1.58;1.45;;;2.20;1.00;;;;;;5033427;28;20219;-82
2023/02/25 08:36:44;;;;;;;2.00;1.40;;;2.30;1.00;;;;;;5031074;28;20229;-83
2023/02/25 08:39:11;;;;;;;1.60;1.50;;;2.30;1.00;;;;;;5031584;28;20708;-83
2023/02/25 08:41:39;;;;;;;2.97;1.73;;;2.30;1.00;;;;;;5025379;28;20277;-83
2023/02/25 08:44:06;;;;;;;1.60;1.50;;;2.40;1.00;;;;;;5025865;28;20220;-83
2023/02/25 08:46:33;;;;;;;2.60;1.67;;;2.30;1.00;;;;;;5024370;28;20668;-83
2023/02/25 08:49:00;;;;;;;2.40;2.20;;;2.30;1.00;;;;;;5020175;28;20274;-83
2023/02/25 08:51:32;;;;;;;2.63;2.42;;;2.00;1.00;;;;;;5021491;28;20213;-83
2023/02/25 08:54:01;;;;;;;2.10;2.00;;;2.20;1.00;;;;;;5022970;28;20188;-83
2023/02/25 08:56:27;;;;;;;2.55;2.35;;;2.20;1.00;;;;;;5023881;28;20250;-83
2023/02/25 08:58:56;;;;;;;2.10;2.00;;;2.30;1.00;;;;;;5024026;28;20236;-82
2023/02/25 09:01:23;;;;;;;2.65;2.45;;;2.20;1.00;;;;;;5024482;28;20269;-83
2023/02/25 09:03:51;;;;;;;2.50;2.30;;;2.10;1.00;;;;;;5023932;28;20221;-83
2023/02/25 09:06:18;;;;;;;2.63;2.42;;;2.30;1.00;;;;;;5024051;28;20815;-82
2023/02/25 09:08:45;;;;;;;2.22;2.05;;;2.20;1.00;;;;;;5027363;28;20733;-83
2023/02/25 09:11:12;;;;;;;2.47;2.33;;;2.20;1.00;;;;;;5029814;28;20231;-82
2023/02/25 09:13:38;;;;;;;2.40;2.20;;;2.20;1.00;;;;;;5031526;28;20300;-83
2023/02/25 09:16:08;;;;;;;2.45;2.25;;;2.10;1.00;;;;;;5028149;28;20579;-82
2023/02/25 09:18:34;;;;;;;2.08;1.98;;;2.10;1.00;;;;;;5030827;28;20306;-83
2023/02/25 09:21:02;;;;;;;2.40;2.20;;;2.10;1.00;;;;;;5028484;28;20754;-83
2023/02/25 09:23:30;;;;;;;2.42;2.22;;;2.20;1.00;;;;;;5024486;28;20220;-82
2023/02/25 09:25:57;;;;;;;2.10;2.00;;;2.20;1.00;;;;;;5024896;28;20213;-83
2023/02/25 09:28:23;;;;;;;2.13;2.03;;;2.30;1.00;;;;;;5025933;28;20368;-82
2023/02/25 09:30:50;;;;;;;1.60;1.50;;;2.20;1.00;;;;;;5026863;28;20297;-82
2023/02/25 09:33:18;;;;;;;1.25;1.25;;;2.00;1.00;;;;;;5026925;28;20272;-82
2023/02/25 09:35:45;;;;;;;1.30;1.20;;;2.20;1.00;;;;;;5025561;28;20284;-82
2023/02/25 09:38:12;;;;;;;1.40;1.10;;;2.30;1.00;;;;;;5025517;28;20247;-82
2023/02/25 09:40:40;;;;;;;1.10;1.10;;;2.40;1.00;;;;;;5024676;28;20215;-82
2023/02/25 09:43:19;;;;;;;1.33;1.23;;;2.30;1.00;;;;;;5028648;28;20211;-82
2023/02/25 09:45:52;;;;;;;1.77;1.42;;;2.60;1.00;;;;;;5034339;28;20240;-82
2023/02/25 09:48:29;;;;;;;1.55;1.45;;;2.40;1.00;;;;;;5033003;28;20621;-82
2023/02/25 09:51:02;;;;;;;1.50;1.38;;;2.50;1.00;;;;;;5025776;28;20189;-82
2023/02/25 09:53:35;;;;;;;2.15;1.13;;;2.50;1.00;;;;;;5024067;28;20541;-83
2023/02/25 09:56:06;;;;;;;1.50;1.35;;;2.60;1.00;;;;;;5023405;28;20701;-83
2023/02/25 09:58:39;;;;;;;1.95;1.50;;;2.60;1.00;;;;;;5023406;28;20224;-83
2023/02/25 10:01:11;;;;;;;2.60;1.60;;;2.50;1.00;;;;;;5024577;28;20200;-82
2023/02/25 10:03:49;;;;;;;2.63;2.03;;;2.50;1.00;;;;;;5023003;28;20227;-82
2023/02/25 10:06:21;;;;;;;1.67;1.58;;;2.50;99.90;;;;;;5023070;28;20189;-82
2023/02/25 10:08:54;;;;;;;1.63;1.55;;;2.80;1.00;;;;;;5022066;28;20274;-82
2023/02/25 10:11:35;;;;;;;1.77;1.65;;;2.60;1.00;;;;;;5005001;28;20255;-82
2023/02/25 10:14:15;;;;;;;1.52;1.42;;;2.70;1.00;;;;;;5022864;28;20613;-82
2023/02/25 10:16:53;;;;;;;1.00;0.90;;;2.70;1.00;;;;;;5025293;28;20253;-83
2023/02/25 10:19:35;;;;;;;4.00;2.65;;;2.70;99.90;;;;;;5023175;28;20276;-83
2023/02/25 10:22:16;;;;;;;1.30;1.20;;;2.80;99.90;;;;;;5024780;28;20634;-83
2023/02/25 10:24:46;;;;;;;1.52;1.42;;;2.80;99.90;;;;;;5028386;28;20208;-83
2023/02/25 10:27:20;;;;;;;2.17;1.40;;;2.80;99.90;;;;;;5024132;28;20190;-82
2023/02/25 10:29:50;;;;;;;1.75;1.65;;;2.70;99.90;;;;;;5022053;28;20224;-82
2023/02/25 10:32:22;;;;;;;1.90;1.80;;;2.70;99.90;;;;;;5022631;28;20201;-83
2023/02/25 10:34:51;;;;;;;5.93;1.73;;;2.60;99.90;;;;;;5021633;28;20185;-83
2023/02/25 10:37:25;;;;;;;1.40;1.30;;;2.90;1.00;;;;;;5021983;28;20382;-82
2023/02/25 10:39:58;;;;;;;0.93;0.93;;;2.70;99.90;;;;;;5022228;28;20256;-83
2023/02/25 10:42:25;;;;;;;1.63;0.88;;;2.60;99.90;;;;;;5024862;28;20288;-82
2023/02/25 10:44:54;;;;;;;1.73;1.10;;;2.70;99.90;;;;;;5029438;28;20293;-82
2023/02/25 10:47:30;;;;;;;1.58;1.15;;;2.70;99.90;;;;;;5026906;28;20723;-82
2023/02/25 10:50:22;;;;;;;1.30;1.20;;;2.60;99.90;;;;;;5025482;28;20308;-82
2023/02/25 10:52:55;;;;;;;1.52;1.00;;;2.70;99.90;;;;;;5029304;28;20563;-83
2023/02/25 10:55:50;;;;;;;1.00;1.00;;;2.70;99.90;;;;;;5030447;28;20213;-83
2023/02/25 10:58:24;;;;;;;2.15;1.40;;;2.70;99.90;;;;;;5027790;28;20312;-82
2023/02/25 11:00:58;;;;;;;1.33;1.23;;;2.70;99.90;;;;;;5023667;28;20200;-82
2023/02/25 11:03:29;;;;;;;1.15;1.15;;;2.80;99.90;;;;;;5023041;28;20240;-82
2023/02/25 11:06:11;;;;;;;1.20;1.10;;;2.80;99.90;;;;;;5026363;28;20232;-82
2023/02/25 11:08:38;;;;;;;1.33;1.23;;;2.90;99.90;;;;;;5026216;28;20233;-83
2023/02/25 11:11:13;;;;;;;1.30;1.30;;;3.00;99.90;;;;;;5031967;28;20212;-82
2023/02/25 11:13:40;;;;;;;1.50;1.20;;;3.00;99.90;;;;;;5031971;28;20232;-83
2023/02/25 11:16:11;;;;;;;1.73;1.60;;;2.90;39.30;;;;;;5023933;28;20296;-83
2023/02/25 11:18:38;;;;;;;1.60;1.50;;;3.00;46.40;;;;;;5021753;28;20224;-83
2023/02/25 11:21:08;;;;;;;1.60;1.50;;;3.10;1.00;;;;;;5022273;28;20273;-82
2023/02/25 11:23:38;;;;;;;1.40;1.30;;;3.00;1.00;;;;;;5023414;28;20247;-83
2023/02/25 11:26:06;;;;;;;1.42;1.33;;;3.20;1.00;;;;;;5022060;28;20231;-82
2023/02/25 11:28:38;;;;;;;1.65;1.55;;;3.20;1.00;;;;;;5022193;28;20225;-82
2023/02/25 11:31:11;;;;;;;3.65;1.60;;;3.00;1.00;;;;;;5021893;28;20189;-83
2023/02/25 11:33:42;;;;;;;2.10;1.83;;;3.00;99.90;;;;;;5035034;28;20213;-82
2023/02/25 11:36:11;;;;;;;1.90;1.80;;;3.10;99.90;;;;;;5037305;28;20185;-82
2023/02/25 11:38:40;;;;;;;1.80;1.70;;;2.80;51.30;;;;;;5026642;28;20260;-82
2023/02/25 11:41:17;;;;;;;1.40;1.30;;;2.90;99.90;;;;;;5023033;28;20263;-83
2023/02/25 11:43:45;;;;;;;1.00;1.00;;;2.80;99.90;;;;;;5038643;28;20185;-82
2023/02/25 11:46:16;;;;;;;1.10;1.10;;;2.00;99.90;;;;;;5032326;28;20311;-82
2023/02/25 11:48:49;;;;;;;1.50;1.30;;;1.80;99.90;;;;;;5024032;28;20708;-83
2023/02/25 11:51:27;;;;;;;0.80;0.80;;;2.00;99.90;;;;;;5020801;28;20671;-82
2023/02/25 11:54:20;;;;;;;1.92;1.67;;;2.20;99.90;;;;;;5019428;28;20697;-82
2023/02/25 11:56:50;;;;;;;1.40;1.27;;;2.40;99.90;;;;;;5020115;28;20268;-82
2023/02/25 11:59:31;;;;;;;1.30;1.20;;;2.30;99.90;;;;;;5035201;28;20224;-82
2023/02/25 12:02:19;;;;;;;1.73;1.15;;;2.40;99.90;;;;;;5038447;28;20266;-82
2023/02/25 12:05:15;;;;;;;1.70;1.17;;;2.60;99.90;;;;;;5036806;28;20208;-82
2023/02/25 12:08:01;;;;;;;1.88;1.30;;;2.70;99.90;;;;;;5024744;28;20195;-82
2023/02/25 12:10:55;;;;;;;1.10;1.10;;;2.30;99.90;;;;;;5029215;28;20189;-82
2023/02/25 12:13:56;;;;;;;1.52;1.42;;;2.80;99.90;;;;;;5031911;28;20248;-83
2023/02/25 12:16:50;;;;;;;1.40;1.30;;;2.80;99.90;;;;;;5037678;28;20208;-83
2023/02/25 12:19:49;;;;;;;2.03;1.92;;;2.90;99.90;;;;;;5034249;28;20221;-83
2023/02/25 12:22:45;;;;;;;0.90;0.90;;;2.30;99.90;;;;;;5032037;28;20231;-83
2023/02/25 12:25:27;;;;;;;1.50;1.40;;;2.40;62.00;;;;;;5031614;28;20211;-83
2023/02/25 12:28:39;;;;;;;1.25;1.15;;;2.40;99.90;;;;;;5036192;28;20207;-82
2023/02/25 12:31:29;;;;;;;1.73;1.60;;;2.40;99.90;;;;;;5038016;28;20212;-83
2023/02/25 12:34:26;;;;;;;2.08;1.45;;;2.30;99.90;;;;;;5038160;28;20229;-83
2023/02/25 12:37:29;;;;;;;2.17;1.50;;;2.40;99.90;;;;;;5038249;28;20256;-83
2023/02/25 12:40:12;;;;;;;1.27;1.20;;;2.40;99.90;;;;;;5038027;28;20205;-83
2023/02/25 12:42:52;;;;;;;1.45;1.10;;;2.50;99.90;;;;;;5038109;28;20256;-83
2023/02/25 12:45:33;;;;;;;1.35;1.25;;;2.50;99.90;;;;;;5038146;28;20240;-82
2023/02/25 12:48:16;;;;;;;1.38;1.23;;;2.50;99.90;;;;;;5037289;28;20209;-82
2023/02/25 12:50:57;;;;;;;2.08;1.77;;;2.90;99.90;;;;;;5034705;28;20216;-83
2023/02/25 12:53:41;;;;;;;1.55;1.30;;;2.20;99.90;;;;;;5022312;28;20263;-83
2023/02/25 12:56:23;;;;;;;1.70;1.60;;;2.20;99.90;;;;;;5024899;28;20244;-81
2023/02/25 12:59:10;;;;;;;2.88;2.40;;;2.10;99.90;;;;;;5022963;28;20255;-82
2023/02/25 13:01:56;;;;;;;2.67;2.47;;;2.10;99.90;;;;;;5022974;28;20193;-83
2023/02/25 13:04:43;;;;;;;2.60;2.40;;;2.20;99.90;;;;;;5026909;28;20226;-82
2023/02/25 13:07:26;;;;;;;2.63;2.42;;;2.10;99.90;;;;;;5021965;28;20551;-82
2023/02/25 13:10:11;;;;;;;3.15;2.85;;;2.00;99.90;;;;;;5024395;28;20240;-83
2023/02/25 13:12:57;;;;;;;4.22;3.88;;;2.10;99.90;;;;;;5026160;28;20284;-83
2023/02/25 13:15:35;;;;;;;3.47;3.28;;;2.10;99.90;;;;;;5026529;28;20216;-83
2023/02/25 13:18:23;;;;;;;24.25;13.23;;;2.10;99.90;;;;;;5026106;28;20631;-83
2023/02/25 13:21:27;;;;;;;2.28;2.17;;;1.90;99.90;;;;;;5025096;28;20220;-83
2023/02/25 13:24:20;;;;;;;2.35;1.85;;;1.50;1.00;;;;;;5032348;28;20288;-82
2023/02/25 13:27:05;;;;;;;3.03;2.13;;;1.40;99.90;;;;;;5031547;28;20283;-83
2023/02/25 13:29:42;;;;;;;2.47;1.60;;;1.30;99.90;;;;;;5029223;28;20288;-82